Time;durP1;ratioP1;P1;durP2;ratioP2;P2;SDS_P1;SDS_P2;PMS_P1;PMS_P2;Temp;Humidity;BMP_temperature;BMP_pressure;BME280_temperature;BME280_humidity;BME280_pressure;Samples;Min_cycle;Max_cycle;Signal;HPM_P1;HPM_P2
2023/11/27 00:12:58;;;;;;;8.70;4.45;;;;;;;;;;6084642;23;20014;-93
2023/11/27 00:25:09;;;;;;;9.18;5.43;;;;;;;;;;5953776;24;20110;-95
2023/11/27 00:37:41;;;;;;;9.13;5.80;;;;;;;;;;5954782;24;20022;-94
2023/11/27 00:40:22;;;;;;;10.43;6.50;;;;;;;;;;5896314;24;20432;-95
2023/11/27 00:46:19;;;;;;;15.75;7.88;;;;;;;;;;5955719;24;20063;-96
2023/11/27 00:51:56;;;;;;;34.40;16.02;;;;;;;;;;6043285;23;20007;-95
2023/11/27 00:54:54;;;;;;;;;;;;;;;;;;;;;
2023/11/27 00:57:44;;;;;;;23.83;11.85;;;;;;;;;;6069981;23;20094;-95
2023/11/27 01:00:19;;;;;;;28.45;15.65;;;;;;;;;;6007831;23;20012;-89
2023/11/27 01:06:05;;;;;;;20.88;10.23;;;;;;;;;;5991092;23;20427;-96
2023/11/27 01:15:32;;;;;;;18.23;9.43;;;;;;;;;;5955651;24;20015;-96
2023/11/27 01:21:12;;;;;;;17.23;9.30;;;;;;;;;;5899520;24;20043;-93
2023/11/27 01:23:39;;;;;;;18.50;9.60;;;;;;;;;;5954868;24;20023;-94
2023/11/27 01:26:11;;;;;;;14.23;8.48;;;;;;;;;;5957797;24;20020;-93
2023/11/27 01:29:15;;;;;;;12.45;7.53;;;;;;;;;;5955421;24;20440;-96
2023/11/27 01:31:41;;;;;;;16.85;8.10;;;;;;;;;;5954561;24;20012;-93
2023/11/27 01:34:10;;;;;;;17.10;9.13;;;;;;;;;;5954910;24;20012;-96
2023/11/27 01:36:46;;;;;;;15.07;9.60;;;;;;;;;;5958550;24;20043;-94
2023/11/27 01:39:15;;;;;;;14.80;9.07;;;;;;;;;;6017736;23;20003;-93
2023/11/27 01:41:44;;;;;;;17.27;10.68;;;;;;;;;;6067504;23;20046;-94
2023/11/27 01:47:54;;;;;;;;;;;;;;;;;;;;;
2023/11/27 01:50:45;;;;;;;15.02;9.27;;;;;;;;;;6158124;23;20024;-95
2023/11/27 01:53:37;;;;;;;18.55;9.65;;;;;;;;;;6220675;23;20065;-96
2023/11/27 01:59:36;;;;;;;16.80;9.07;;;;;;;;;;6126340;23;20066;-95
2023/11/27 02:02:25;;;;;;;18.23;10.63;;;;;;;;;;6090750;23;20030;-95
2023/11/27 02:14:55;;;;;;;;;;;;;;;;;;;;;
2023/11/27 02:17:48;;;;;;;18.77;11.02;;;;;;;;;;6038476;23;20102;-96
2023/11/27 02:54:42;;;;;;;11.48;6.38;;;;;;;;;;6184412;23;20027;-93
2023/11/27 03:07:15;;;;;;;11.70;6.32;;;;;;;;;;6039676;23;20485;-94
2023/11/27 03:10:09;;;;;;;;;;;;;;;;;;;;;
2023/11/27 03:12:33;;;;;;;11.90;6.15;;;;;;;;;;6094223;23;20431;-96
2023/11/27 03:18:07;;;;;;;8.68;4.97;;;;;;;;;;6128694;23;20013;-92
2023/11/27 03:20:36;;;;;;;9.77;5.15;;;;;;;;;;6104357;23;20041;-95
2023/11/27 03:23:05;;;;;;;10.23;5.25;;;;;;;;;;6128457;23;20017;-95
2023/11/27 03:26:16;;;;;;;11.25;5.63;;;;;;;;;;6132708;23;20470;-95
2023/11/27 03:28:45;;;;;;;9.68;4.95;;;;;;;;;;6097646;23;20009;-92
2023/11/27 03:37:47;;;;;;;11.43;5.32;;;;;;;;;;6134962;23;20024;-93
2023/11/27 03:40:40;;;;;;;9.38;5.35;;;;;;;;;;6161527;23;20634;-95
2023/11/27 03:43:07;;;;;;;11.20;5.03;;;;;;;;;;6130220;23;20078;-92
2023/11/27 03:45:33;;;;;;;8.40;4.60;;;;;;;;;;6131798;23;20016;-93
2023/11/27 03:47:59;;;;;;;9.25;4.60;;;;;;;;;;6131217;23;20009;-92
2023/11/27 03:50:37;;;;;;;6.53;4.70;;;;;;;;;;6165246;23;20000;-94
2023/11/27 03:53:06;;;;;;;8.30;4.72;;;;;;;;;;6222239;23;20082;-93
2023/11/27 03:55:35;;;;;;;8.27;5.20;;;;;;;;;;6221257;23;20065;-94
2023/11/27 03:58:07;;;;;;;8.40;4.82;;;;;;;;;;6221775;23;20043;-95
2023/11/27 04:00:37;;;;;;;8.40;4.60;;;;;;;;;;6221939;23;20062;-94
2023/11/27 04:03:06;;;;;;;8.73;5.07;;;;;;;;;;6221707;23;20307;-93
2023/11/27 04:05:37;;;;;;;8.77;5.45;;;;;;;;;;6221412;23;19997;-94
2023/11/27 04:08:09;;;;;;;7.68;4.90;;;;;;;;;;6220939;23;20010;-94
2023/11/27 04:10:35;;;;;;;8.40;5.55;;;;;;;;;;6223351;23;20004;-93
2023/11/27 04:13:01;;;;;;;7.80;4.68;;;;;;;;;;6230440;23;20134;-92
2023/11/27 04:15:34;;;;;;;9.23;5.25;;;;;;;;;;6222610;23;20009;-93
2023/11/27 04:18:03;;;;;;;9.75;6.05;;;;;;;;;;6222057;23;20311;-94
2023/11/27 04:20:29;;;;;;;9.95;5.53;;;;;;;;;;6223480;23;20000;-94
2023/11/27 04:22:58;;;;;;;11.45;6.07;;;;;;;;;;6241529;23;20027;-94
2023/11/27 04:25:27;;;;;;;8.73;5.68;;;;;;;;;;6222912;23;20089;-94
2023/11/27 04:27:57;;;;;;;8.15;5.35;;;;;;;;;;6221428;23;20000;-93
2023/11/27 04:30:29;;;;;;;9.77;5.47;;;;;;;;;;6221612;23;20012;-94
2023/11/27 04:32:58;;;;;;;10.75;5.55;;;;;;;;;;6221375;23;20428;-93
2023/11/27 04:35:24;;;;;;;8.55;5.22;;;;;;;;;;6221711;23;20019;-93
2023/11/27 04:37:53;;;;;;;8.73;5.00;;;;;;;;;;6222011;23;20016;-93
2023/11/27 04:40:22;;;;;;;10.57;6.38;;;;;;;;;;6224297;23;20020;-95
2023/11/27 04:43:03;;;;;;;9.15;5.07;;;;;;;;;;6255278;22;20134;-95
2023/11/27 04:45:29;;;;;;;11.52;5.20;;;;;;;;;;6251543;22;20090;-95
2023/11/27 04:47:58;;;;;;;8.43;4.95;;;;;;;;;;6251954;22;20007;-93
2023/11/27 04:50:27;;;;;;;9.88;5.63;;;;;;;;;;6251417;22;20007;-93
2023/11/27 04:53:40;;;;;;;10.18;6.20;;;;;;;;;;6252130;22;20010;-93
2023/11/27 04:56:07;;;;;;;8.50;5.00;;;;;;;;;;6250201;22;20015;-94
2023/11/27 04:58:34;;;;;;;9.85;5.82;;;;;;;;;;6251729;22;20011;-93
2023/11/27 05:01:02;;;;;;;11.63;5.72;;;;;;;;;;6251622;22;20023;-94
2023/11/27 05:03:28;;;;;;;9.77;5.20;;;;;;;;;;6251965;22;20004;-94
2023/11/27 05:06:06;;;;;;;10.43;5.22;;;;;;;;;;6251958;22;20393;-93
2023/11/27 05:08:35;;;;;;;9.30;5.47;;;;;;;;;;6254615;22;20428;-94
2023/11/27 05:11:10;;;;;;;10.45;5.82;;;;;;;;;;6252720;22;20039;-94
2023/11/27 05:13:36;;;;;;;9.10;5.65;;;;;;;;;;6251656;22;20086;-93
2023/11/27 05:16:31;;;;;;;10.38;6.65;;;;;;;;;;6251855;22;20341;-94
2023/11/27 05:18:58;;;;;;;10.88;6.68;;;;;;;;;;6190631;23;20005;-95
2023/11/27 05:21:41;;;;;;;10.80;6.88;;;;;;;;;;6190247;23;20009;-94
2023/11/27 05:24:10;;;;;;;11.90;6.22;;;;;;;;;;6190861;23;20004;-94
2023/11/27 05:26:39;;;;;;;10.90;6.22;;;;;;;;;;6189718;23;20084;-94
2023/11/27 05:29:11;;;;;;;11.02;6.18;;;;;;;;;;6190427;23;20084;-94
2023/11/27 05:31:43;;;;;;;12.07;7.00;;;;;;;;;;6191330;23;20084;-94
2023/11/27 05:34:12;;;;;;;11.52;6.95;;;;;;;;;;6189867;23;20015;-96
2023/11/27 05:36:48;;;;;;;10.73;7.22;;;;;;;;;;6253507;22;20061;-95
2023/11/27 05:39:15;;;;;;;11.68;7.05;;;;;;;;;;6258693;22;20075;-93
2023/11/27 05:42:50;;;;;;;13.82;7.30;;;;;;;;;;6277387;22;20011;-92
2023/11/27 05:45:15;;;;;;;12.98;6.85;;;;;;;;;;6216579;23;20083;-96
2023/11/27 05:47:44;;;;;;;11.70;7.13;;;;;;;;;;6192499;23;20093;-96
2023/11/27 05:53:29;;;;;;;11.05;6.93;;;;;;;;;;6215255;23;20460;-93
2023/11/27 06:04:29;;;;;;;10.38;6.55;;;;;;;;;;6254605;22;20043;-96
2023/11/27 06:07:01;;;;;;;13.75;7.20;;;;;;;;;;6275383;22;20000;-95
2023/11/27 06:12:41;;;;;;;12.95;8.20;;;;;;;;;;6253173;23;20007;-91
2023/11/27 06:26:23;;;;;;;13.88;8.25;;;;;;;;;;6241983;22;20102;-93
2023/11/27 06:29:11;;;;;;;;;;;;;;;;;;;;;
2023/11/27 06:31:50;;;;;;;15.50;8.68;;;;;;;;;;6250385;23;20057;-94
2023/11/27 06:34:55;;;;;;;13.07;7.57;;;;;;;;;;6274890;22;20099;-94
2023/11/27 06:37:42;;;;;;;15.32;7.65;;;;;;;;;;6105021;23;20373;-93
2023/11/27 06:40:16;;;;;;;13.00;8.98;;;;;;;;;;6112062;22;20006;-93
2023/11/27 06:42:46;;;;;;;12.10;7.15;;;;;;;;;;6251707;23;20011;-92
2023/11/27 06:45:16;;;;;;;12.93;7.45;;;;;;;;;;6226630;23;20056;-94
2023/11/27 07:14:12;;;;;;;11.23;7.17;;;;;;;;;;5796121;24;20042;-96
2023/11/27 07:25:33;;;;;;;11.05;7.35;;;;;;;;;;6226101;23;20020;-96
2023/11/27 07:28:04;;;;;;;13.45;8.10;;;;;;;;;;6224762;23;20024;-93
2023/11/27 07:30:31;;;;;;;11.27;7.00;;;;;;;;;;6209121;23;20039;-92
2023/11/27 07:33:15;;;;;;;13.07;7.85;;;;;;;;;;6218071;22;20043;-95
2023/11/27 07:35:42;;;;;;;11.48;7.38;;;;;;;;;;6222596;23;20338;-95
2023/11/27 07:38:29;;;;;;;12.60;8.60;;;;;;;;;;6225007;23;20008;-96
2023/11/27 07:40:56;;;;;;;15.68;7.10;;;;;;;;;;6228750;23;20090;-95
2023/11/27 07:43:22;;;;;;;10.32;6.28;;;;;;;;;;6165200;23;20009;-93
2023/11/27 07:51:58;;;;;;;;;;;;;;;;;;;;;
2023/11/27 08:00:14;;;;;;;10.07;5.75;;;;;;;;;;6281047;22;20019;-95
2023/11/27 08:02:43;;;;;;;9.63;6.43;;;;;;;;;;6255813;22;20011;-94
2023/11/27 08:05:18;;;;;;;10.95;5.72;;;;;;;;;;6253414;22;20027;-95
2023/11/27 08:07:48;;;;;;;13.40;6.95;;;;;;;;;;6252753;22;20091;-95
2023/11/27 08:10:17;;;;;;;9.57;6.18;;;;;;;;;;6251935;22;20004;-95
2023/11/27 08:15:18;;;;;;;12.05;6.40;;;;;;;;;;6246636;22;20488;-94
2023/11/27 08:21:27;;;;;;;10.68;7.20;;;;;;;;;;6259582;22;20027;-96
2023/11/27 08:23:59;;;;;;;11.23;6.22;;;;;;;;;;6252189;22;20086;-94
2023/11/27 08:26:39;;;;;;;9.60;5.85;;;;;;;;;;6252190;22;20298;-94
2023/11/27 08:29:27;;;;;;;8.45;5.55;;;;;;;;;;6251368;22;20058;-94
2023/11/27 08:31:53;;;;;;;6.32;4.03;;;;;;;;;;6252326;22;20008;-96
2023/11/27 08:37:47;;;;;;;6.13;4.53;;;;;;;;;;6278821;22;20054;-96
2023/11/27 08:40:16;;;;;;;5.65;4.00;;;;;;;;;;6252330;22;20000;-95
2023/11/27 08:42:48;;;;;;;7.55;4.65;;;;;;;;;;6253295;22;20032;-93
2023/11/27 08:45:20;;;;;;;8.05;4.95;;;;;;;;;;6253209;22;19999;-95
2023/11/27 08:48:00;;;;;;;6.70;4.40;;;;;;;;;;6253687;22;20004;-96
2023/11/27 08:50:38;;;;;;;5.93;3.92;;;;;;;;;;6255834;22;19983;-95
2023/11/27 08:53:07;;;;;;;6.00;4.10;;;;;;;;;;6254648;22;20011;-95
2023/11/27 08:59:19;;;;;;;3.97;2.90;;;;;;;;;;6156459;23;20463;-94
2023/11/27 09:01:54;;;;;;;4.82;3.45;;;;;;;;;;6186194;22;20029;-94
2023/11/27 09:04:26;;;;;;;5.80;2.83;;;;;;;;;;6260047;22;20008;-93
2023/11/27 09:07:27;;;;;;;4.22;3.80;;;;;;;;;;6222164;23;20005;-93
2023/11/27 09:10:06;;;;;;;3.20;2.50;;;;;;;;;;6220703;23;20008;-94
2023/11/27 09:12:40;;;;;;;5.28;2.78;;;;;;;;;;6213566;23;20428;-94
2023/11/27 09:15:28;;;;;;;5.28;2.25;;;;;;;;;;6221255;23;20020;-93
2023/11/27 09:18:01;;;;;;;3.22;2.20;;;;;;;;;;6220984;23;20430;-94
2023/11/27 09:20:33;;;;;;;6.00;2.58;;;;;;;;;;6216583;23;20430;-95
2023/11/27 09:23:12;;;;;;;3.67;2.97;;;;;;;;;;6221604;23;20004;-93
2023/11/27 09:25:44;;;;;;;3.35;2.55;;;;;;;;;;6221512;23;20438;-96
2023/11/27 09:28:19;;;;;;;4.35;2.45;;;;;;;;;;6229213;23;20464;-91
2023/11/27 09:30:49;;;;;;;5.97;2.35;;;;;;;;;;6228227;23;20345;-95
2023/11/27 09:36:30;;;;;;;3.92;2.03;;;;;;;;;;6184641;23;20103;-94
2023/11/27 09:38:59;;;;;;;2.50;1.80;;;;;;;;;;6160103;23;20450;-93
2023/11/27 09:41:32;;;;;;;3.17;1.80;;;;;;;;;;6159740;23;20005;-92
2023/11/27 09:44:04;;;;;;;2.97;1.75;;;;;;;;;;6158962;23;20009;-93
2023/11/27 09:46:42;;;;;;;2.60;1.73;;;;;;;;;;6168145;23;20013;-91
2023/11/27 09:49:18;;;;;;;2.10;1.63;;;;;;;;;;6205182;23;20004;-91
2023/11/27 09:51:53;;;;;;;3.45;1.98;;;;;;;;;;6189534;23;20536;-93
2023/11/27 09:54:59;;;;;;;;;;;;;;;;;;;;;
2023/11/27 09:57:54;;;;;;;3.38;1.65;;;;;;;;;;6096033;23;20096;-93
2023/11/27 10:00:21;;;;;;;3.38;2.10;;;;;;;;;;6022128;23;20007;-96
2023/11/27 10:02:50;;;;;;;3.60;1.60;;;;;;;;;;6148631;23;20029;-93
2023/11/27 10:05:28;;;;;;;2.83;1.58;;;;;;;;;;6157222;23;20008;-93
2023/11/27 10:08:35;;;;;;;2.25;1.55;;;;;;;;;;6159237;23;20005;-92
2023/11/27 10:11:05;;;;;;;3.55;1.50;;;;;;;;;;6014881;23;20012;-93
2023/11/27 10:13:49;;;;;;;2.70;1.50;;;;;;;;;;6014201;23;20095;-94
2023/11/27 10:16:27;;;;;;;2.03;1.27;;;;;;;;;;6159446;23;20475;-93
2023/11/27 10:19:06;;;;;;;3.40;1.85;;;;;;;;;;6160655;23;20084;-93
2023/11/27 10:21:36;;;;;;;2.95;1.70;;;;;;;;;;6126536;23;20006;-93
2023/11/27 10:24:14;;;;;;;2.78;1.23;;;;;;;;;;6095198;23;20017;-93
2023/11/27 10:26:52;;;;;;;2.60;1.50;;;;;;;;;;6071560;23;20009;-94
2023/11/27 10:29:29;;;;;;;2.03;1.40;;;;;;;;;;6073387;23;20011;-92
2023/11/27 10:32:04;;;;;;;2.22;1.30;;;;;;;;;;6071683;23;20034;-93
2023/11/27 10:34:40;;;;;;;2.47;1.50;;;;;;;;;;6094673;23;20478;-93
2023/11/27 10:37:16;;;;;;;3.47;1.70;;;;;;;;;;6125920;23;20018;-95
2023/11/27 10:39:52;;;;;;;5.32;1.40;;;;;;;;;;6127195;23;20033;-93
2023/11/27 10:42:20;;;;;;;2.70;1.10;;;;;;;;;;6125669;23;20010;-92
2023/11/27 10:44:52;;;;;;;1.58;1.10;;;;;;;;;;6128239;23;20012;-92
2023/11/27 10:47:41;;;;;;;2.30;1.25;;;;;;;;;;6127628;23;20029;-94
2023/11/27 10:50:22;;;;;;;1.92;0.88;;;;;;;;;;5986470;23;20034;-93
2023/11/27 10:52:51;;;;;;;1.85;1.05;;;;;;;;;;6002934;23;20008;-94
2023/11/27 10:55:22;;;;;;;2.13;1.00;;;;;;;;;;6090756;23;20017;-94
2023/11/27 10:57:48;;;;;;;1.70;1.10;;;;;;;;;;6100365;23;20006;-93
2023/11/27 11:00:46;;;;;;;1.63;0.90;;;;;;;;;;6100394;23;20044;-93
2023/11/27 11:03:24;;;;;;;1.70;1.30;;;;;;;;;;6099566;23;20018;-94
2023/11/27 11:05:53;;;;;;;2.67;1.40;;;;;;;;;;6101677;23;20010;-93
2023/11/27 11:08:32;;;;;;;3.55;1.55;;;;;;;;;;6101020;23;20036;-94
2023/11/27 11:11:07;;;;;;;2.65;1.52;;;;;;;;;;6100863;23;20006;-94
2023/11/27 11:13:43;;;;;;;4.30;2.13;;;;;;;;;;6133663;23;20037;-91
2023/11/27 11:16:14;;;;;;;3.15;1.52;;;;;;;;;;6285487;22;20050;-92
2023/11/27 11:19:00;;;;;;;2.83;1.42;;;;;;;;;;6221663;23;20012;-94
2023/11/27 11:21:50;;;;;;;2.38;1.60;;;;;;;;;;6221655;23;20008;-94
2023/11/27 11:24:38;;;;;;;3.50;1.88;;;;;;;;;;6221771;23;19996;-94
2023/11/27 11:27:19;;;;;;;2.08;1.30;;;;;;;;;;6234352;23;20020;-94
2023/11/27 11:29:58;;;;;;;2.90;2.33;;;;;;;;;;6274745;22;20319;-95
2023/11/27 11:32:33;;;;;;;2.95;1.70;;;;;;;;;;6274502;22;20008;-94
2023/11/27 11:35:11;;;;;;;2.00;1.20;;;;;;;;;;6274318;22;20488;-95
2023/11/27 11:37:54;;;;;;;2.17;1.30;;;;;;;;;;6276064;22;20016;-94
2023/11/27 11:40:40;;;;;;;1.63;0.93;;;;;;;;;;6296660;22;20072;-94
2023/11/27 11:43:13;;;;;;;2.80;1.10;;;;;;;;;;6231374;22;20042;-93
2023/11/27 11:45:46;;;;;;;2.33;1.33;;;;;;;;;;6256486;23;20007;-94
2023/11/27 11:48:18;;;;;;;4.60;2.28;;;;;;;;;;6251685;23;20034;-94
2023/11/27 11:50:51;;;;;;;6.10;3.15;;;;;;;;;;6253051;22;20004;-95
2023/11/27 11:53:21;;;;;;;3.90;2.30;;;;;;;;;;6277635;22;20008;-94
2023/11/27 11:56:08;;;;;;;3.40;2.22;;;;;;;;;;6278319;22;20146;-93
2023/11/27 11:58:37;;;;;;;3.47;2.10;;;;;;;;;;6247206;23;20492;-95
2023/11/27 12:01:10;;;;;;;3.78;2.38;;;;;;;;;;6274881;22;20004;-94
2023/11/27 12:03:46;;;;;;;2.67;1.50;;;;;;;;;;6225566;23;20362;-94
2023/11/27 12:06:18;;;;;;;2.92;1.73;;;;;;;;;;6226109;23;20067;-94
2023/11/27 12:09:18;;;;;;;3.08;1.85;;;;;;;;;;6226779;23;20004;-94
2023/11/27 12:11:50;;;;;;;4.05;2.33;;;;;;;;;;6226242;23;20062;-94
2023/11/27 12:14:32;;;;;;;4.50;1.50;;;;;;;;;;6227592;23;20425;-94
2023/11/27 12:19:34;;;;;;;3.00;1.80;;;;;;;;;;6285445;22;20019;-95
2023/11/27 12:22:08;;;;;;;1.65;1.23;;;;;;;;;;6255203;22;20008;-95
2023/11/27 12:24:37;;;;;;;2.35;1.38;;;;;;;;;;6259446;22;20094;-94
2023/11/27 12:27:06;;;;;;;3.20;1.50;;;;;;;;;;6259268;22;19999;-95
2023/11/27 12:29:38;;;;;;;2.85;1.50;;;;;;;;;;6258328;22;20038;-95
2023/11/27 12:32:25;;;;;;;1.50;1.08;;;;;;;;;;6224549;23;20051;-93
2023/11/27 12:34:51;;;;;;;2.83;1.63;;;;;;;;;;6198116;23;20028;-94
2023/11/27 12:37:18;;;;;;;2.90;1.30;;;;;;;;;;6197656;23;20399;-94
2023/11/27 12:39:59;;;;;;;4.60;2.47;;;;;;;;;;6197373;23;20007;-95
2023/11/27 12:42:33;;;;;;;2.83;1.75;;;;;;;;;;6195369;23;20005;-94
2023/11/27 12:45:12;;;;;;;5.18;2.05;;;;;;;;;;6196129;23;20005;-94
2023/11/27 12:48:07;;;;;;;3.40;1.85;;;;;;;;;;6187800;23;20000;-95
2023/11/27 12:50:45;;;;;;;2.60;1.20;;;;;;;;;;6198266;23;20014;-93
2023/11/27 12:53:29;;;;;;;2.00;1.05;;;;;;;;;;6202452;23;20005;-93
2023/11/27 12:55:58;;;;;;;;;;;;;;;;;;6197365;23;20017;-91
2023/11/27 12:58:34;;;;;;;2.10;1.30;;;;;;;;;;6193669;23;19908;-93
2023/11/27 13:01:29;;;;;;;2.25;1.25;;;;;;;;;;6187234;23;20021;-95
2023/11/27 13:04:09;;;;;;;1.83;1.10;;;;;;;;;;6180926;23;20004;-92
2023/11/27 13:06:40;;;;;;;1.67;1.20;;;;;;;;;;6226801;23;20008;-93
2023/11/27 13:09:12;;;;;;;1.67;1.10;;;;;;;;;;6237132;23;20008;-92
2023/11/27 13:11:51;;;;;;;3.40;1.35;;;;;;;;;;6246082;22;20018;-95
2023/11/27 13:14:26;;;;;;;2.92;1.52;;;;;;;;;;6270358;22;20012;-92
2023/11/27 13:16:56;;;;;;;3.15;1.40;;;;;;;;;;6196439;23;20023;-93
2023/11/27 13:19:45;;;;;;;2.55;1.20;;;;;;;;;;6170785;22;20012;-92
2023/11/27 13:27:48;;;;;;;2.70;1.38;;;;;;;;;;6269753;22;20020;-92
2023/11/27 13:30:27;;;;;;;2.58;1.20;;;;;;;;;;6297707;22;20004;-92
2023/11/27 13:33:12;;;;;;;2.30;1.25;;;;;;;;;;6297314;22;20008;-91
2023/11/27 13:36:17;;;;;;;3.70;1.80;;;;;;;;;;6276749;22;20064;-90
2023/11/27 13:41:23;;;;;;;2.08;1.10;;;;;;;;;;6265868;22;20032;-93
2023/11/27 13:49:25;;;;;;;;;;;;;;;;;;;;;
2023/11/27 13:52:00;;;;;;;4.93;1.50;;;;;;;;;;6262243;23;20008;-95
2023/11/27 13:54:30;;;;;;;3.17;1.30;;;;;;;;;;6281224;22;20422;-95
2023/11/27 13:57:26;;;;;;;2.60;1.88;;;;;;;;;;6280071;22;20020;-95
2023/11/27 14:02:50;;;;;;;3.38;1.27;;;;;;;;;;6188863;22;20010;-94
2023/11/27 14:05:25;;;;;;;2.85;1.50;;;;;;;;;;6273698;22;20093;-92
2023/11/27 14:07:54;;;;;;;3.80;2.03;;;;;;;;;;6284196;22;20054;-92
2023/11/27 14:10:54;;;;;;;4.20;2.13;;;;;;;;;;6280030;22;20000;-94
2023/11/27 14:13:24;;;;;;;4.07;2.20;;;;;;;;;;6254482;23;20004;-93
2023/11/27 14:15:57;;;;;;;3.67;1.88;;;;;;;;;;6278616;22;20035;-93
2023/11/27 14:18:27;;;;;;;5.45;2.03;;;;;;;;;;6277932;22;20008;-93
2023/11/27 14:35:58;;;;;;;12.88;7.57;;;;;;;;;;6192304;23;20028;-91
2023/11/27 14:38:32;;;;;;;21.27;12.45;;;;;;;;;;6171817;23;20005;-95
2023/11/27 14:41:10;;;;;;;15.35;8.75;;;;;;;;;;6165344;23;20036;-94
2023/11/27 14:43:39;;;;;;;12.23;7.70;;;;;;;;;;6166714;23;20009;-94
2023/11/27 14:46:25;;;;;;;13.13;8.43;;;;;;;;;;6188257;23;20055;-95
2023/11/27 14:49:22;;;;;;;16.90;9.38;;;;;;;;;;6165882;23;20001;-96
2023/11/27 14:55:19;;;;;;;15.07;8.93;;;;;;;;;;6131393;23;20020;-95
2023/11/27 14:58:04;;;;;;;9.88;6.63;;;;;;;;;;6108005;23;20073;-96
2023/11/27 15:00:51;;;;;;;12.15;6.68;;;;;;;;;;6144711;23;20061;-95
2023/11/27 15:03:32;;;;;;;9.27;6.20;;;;;;;;;;6222142;23;20019;-96
2023/11/27 15:06:14;;;;;;;10.98;5.72;;;;;;;;;;6220656;23;20075;-94
2023/11/27 15:09:12;;;;;;;8.50;4.40;;;;;;;;;;6245666;22;20008;-96
2023/11/27 15:11:38;;;;;;;9.57;4.57;;;;;;;;;;6234015;23;20000;-96
2023/11/27 15:14:08;;;;;;;12.88;6.10;;;;;;;;;;6259158;23;20418;-94
2023/11/27 15:16:47;;;;;;;15.68;8.20;;;;;;;;;;6251425;23;20358;-94
2023/11/27 15:19:33;;;;;;;;;;;;;;;;;;;;;
2023/11/27 15:44:45;;;;;;;35.53;18.30;;;;;;;;;;6236810;22;20107;-94
2023/11/27 15:56:26;;;;;;;28.85;14.55;;;;;;;;;;6283304;22;20559;-93
2023/11/27 15:59:18;;;;;;;32.30;15.88;;;;;;;;;;6258491;22;20518;-95
2023/11/27 16:01:56;;;;;;;32.47;15.02;;;;;;;;;;6253553;22;20036;-96
2023/11/27 16:07:50;;;;;;;39.35;18.00;;;;;;;;;;6282812;22;20014;-92
2023/11/27 16:10:26;;;;;;;41.03;18.15;;;;;;;;;;6256448;22;20000;-92
2023/11/27 16:12:55;;;;;;;31.48;16.40;;;;;;;;;;6253789;22;20007;-92
2023/11/27 16:15:44;;;;;;;28.70;15.07;;;;;;;;;;6229090;22;20008;-94
2023/11/27 16:18:29;;;;;;;29.55;15.82;;;;;;;;;;6255740;22;20061;-93
2023/11/27 16:21:37;;;;;;;31.92;16.20;;;;;;;;;;6268574;22;20008;-90
2023/11/27 16:23:44;;;;;;;40.33;19.58;;;;;;;;;;6269495;22;19999;-93
2023/11/27 16:26:26;;;;;;;33.70;16.15;;;;;;;;;;6261239;22;20004;-92
2023/11/27 16:28:52;;;;;;;23.70;11.45;;;;;;;;;;6252791;23;20548;-93
2023/11/27 16:31:27;;;;;;;14.75;8.23;;;;;;;;;;6247705;23;20496;-93
2023/11/27 16:34:28;;;;;;;15.60;7.85;;;;;;;;;;6247746;23;20043;-95
2023/11/27 16:37:09;;;;;;;15.77;9.02;;;;;;;;;;6175971;23;20012;-94
2023/11/27 16:49:32;;;;;;;;;;;;;;;;;;;;;
2023/11/27 16:54:57;;;;;;;32.47;15.60;;;;;;;;;;6278928;22;20480;-93
2023/11/27 16:57:24;;;;;;;31.35;14.82;;;;;;;;;;6261609;22;20020;-93
2023/11/27 17:08:46;;;;;;;30.80;14.52;;;;;;;;;;6282744;22;20019;-94
2023/11/27 17:11:50;;;;;;;;;;;;;;;;;;;;;
2023/11/27 17:17:22;;;;;;;23.40;12.13;;;;;;;;;;6279533;22;20572;-92
2023/11/27 17:19:57;;;;;;;25.88;13.68;;;;;;;;;;6212349;22;20515;-96
2023/11/27 17:22:37;;;;;;;26.63;14.43;;;;;;;;;;6260903;22;20007;-93
2023/11/27 17:25:22;;;;;;;33.40;18.45;;;;;;;;;;6285161;22;20004;-93
2023/11/27 17:30:43;;;;;;;31.42;16.42;;;;;;;;;;6276616;22;20031;-94
2023/11/27 17:33:11;;;;;;;41.28;21.50;;;;;;;;;;6247360;22;20016;-93
2023/11/27 17:35:46;;;;;;;49.00;23.65;;;;;;;;;;6269670;22;20008;-95
2023/11/27 17:41:00;;;;;;;48.88;24.13;;;;;;;;;;6263760;22;20035;-94
2023/11/27 17:43:44;;;;;;;48.03;22.50;;;;;;;;;;6234898;22;20009;-94
2023/11/27 17:46:37;;;;;;;47.90;22.58;;;;;;;;;;6235525;23;20015;-94
2023/11/27 18:01:20;;;;;;;64.18;28.48;;;;;;;;;;6256089;23;20031;-91
2023/11/27 18:03:49;;;;;;;57.20;29.67;;;;;;;;;;6236233;23;20028;-93
2023/11/27 18:06:28;;;;;;;47.50;26.13;;;;;;;;;;6170205;23;19997;-92
2023/11/27 18:09:03;;;;;;;34.08;20.13;;;;;;;;;;6117468;23;20428;-94
2023/11/27 18:11:45;;;;;;;35.08;19.92;;;;;;;;;;6139521;23;20153;-94
2023/11/27 18:14:11;;;;;;;28.25;17.10;;;;;;;;;;6146325;23;20036;-94
2023/11/27 18:16:52;;;;;;;25.02;14.75;;;;;;;;;;6134327;23;20101;-91
2023/11/27 18:22:21;;;;;;;27.35;14.35;;;;;;;;;;6105512;23;20489;-92
2023/11/27 18:24:48;;;;;;;23.40;13.80;;;;;;;;;;6076980;23;20344;-94
2023/11/27 18:27:35;;;;;;;23.23;13.85;;;;;;;;;;6102752;23;20499;-92
2023/11/27 18:30:16;;;;;;;26.83;15.55;;;;;;;;;;6030851;23;20003;-93
2023/11/27 18:32:51;;;;;;;23.05;12.90;;;;;;;;;;6079071;23;20022;-96
2023/11/27 18:41:04;;;;;;;25.85;13.38;;;;;;;;;;6162735;23;20017;-91
2023/11/27 18:43:36;;;;;;;24.58;14.25;;;;;;;;;;6195728;23;19997;-93
2023/11/27 18:46:06;;;;;;;29.73;15.30;;;;;;;;;;6182228;23;20008;-92
2023/11/27 18:51:29;;;;;;;27.05;14.63;;;;;;;;;;6256867;23;20019;-92
2023/11/27 18:54:06;;;;;;;31.95;16.23;;;;;;;;;;6254744;23;20310;-94
2023/11/27 18:56:32;;;;;;;28.83;15.57;;;;;;;;;;6224450;23;20032;-93
2023/11/27 18:59:14;;;;;;;28.73;15.77;;;;;;;;;;6247118;23;20000;-93
2023/11/27 19:02:00;;;;;;;33.42;17.92;;;;;;;;;;6255706;23;20000;-94
2023/11/27 19:04:35;;;;;;;33.67;17.75;;;;;;;;;;6228267;23;20178;-93
2023/11/27 19:07:19;;;;;;;35.38;19.40;;;;;;;;;;6229848;23;20062;-92
2023/11/27 19:09:48;;;;;;;36.75;19.10;;;;;;;;;;6234309;23;20008;-90
2023/11/27 19:15:35;;;;;;;30.92;16.23;;;;;;;;;;6264568;23;20047;-93
2023/11/27 19:18:07;;;;;;;33.45;17.33;;;;;;;;;;6211286;23;20036;-90
2023/11/27 19:24:01;;;;;;;32.42;18.13;;;;;;;;;;6132555;23;20010;-95
2023/11/27 19:26:55;;;;;;;43.90;21.35;;;;;;;;;;6083340;23;20375;-94
2023/11/27 19:32:31;;;;;;;30.40;17.27;;;;;;;;;;6053260;23;20109;-93
2023/11/27 19:35:03;;;;;;;;;;;;;;;;;;6051497;23;20003;-93
2023/11/27 19:37:39;;;;;;;28.60;16.35;;;;;;;;;;6047077;23;20003;-93
2023/11/27 19:40:31;;;;;;;30.67;15.98;;;;;;;;;;6043598;23;20031;-90
2023/11/27 19:42:58;;;;;;;28.40;16.45;;;;;;;;;;6021852;23;20058;-90
2023/11/27 19:45:53;;;;;;;30.42;16.65;;;;;;;;;;6016784;23;20008;-93
2023/11/27 19:48:54;;;;;;;26.23;15.43;;;;;;;;;;5994906;23;20383;-93
2023/11/27 19:51:20;;;;;;;33.47;15.93;;;;;;;;;;6086973;23;20083;-93
2023/11/27 19:56:49;;;;;;;26.25;14.52;;;;;;;;;;6086493;23;20025;-93
2023/11/27 19:59:44;;;;;;;24.27;12.93;;;;;;;;;;6109467;23;20012;-92
2023/11/27 20:02:38;;;;;;;25.88;14.25;;;;;;;;;;6135981;23;20044;-93
2023/11/27 20:05:30;;;;;;;28.65;13.90;;;;;;;;;;6104663;23;20052;-94
2023/11/27 20:08:01;;;;;;;28.75;15.68;;;;;;;;;;6132974;23;20034;-94
2023/11/27 20:10:51;;;;;;;23.70;13.75;;;;;;;;;;6103834;23;20010;-95
2023/11/27 20:13:42;;;;;;;29.25;14.90;;;;;;;;;;6097464;23;20010;-95
2023/11/27 20:16:15;;;;;;;28.20;15.10;;;;;;;;;;6079940;23;20034;-94
2023/11/27 20:18:59;;;;;;;27.05;13.80;;;;;;;;;;6128721;23;20402;-94
2023/11/27 20:25:05;;;;;;;24.92;13.35;;;;;;;;;;6114091;23;20028;-95
2023/11/27 20:27:39;;;;;;;24.90;13.25;;;;;;;;;;6114378;23;20134;-95
2023/11/27 20:30:25;;;;;;;26.00;13.85;;;;;;;;;;6110494;23;20033;-93
2023/11/27 20:33:02;;;;;;;22.50;13.25;;;;;;;;;;6111572;23;20013;-94
2023/11/27 20:39:16;;;;;;;26.02;13.10;;;;;;;;;;6077221;23;20015;-93
2023/11/27 20:41:53;;;;;;;26.58;14.30;;;;;;;;;;6091589;23;20018;-94
2023/11/27 20:44:19;;;;;;;21.17;12.70;;;;;;;;;;6079792;23;20045;-93
2023/11/27 20:47:22;;;;;;;24.55;13.68;;;;;;;;;;6080981;23;20014;-92
2023/11/27 20:50:13;;;;;;;23.30;13.18;;;;;;;;;;6039955;23;20053;-95
2023/11/27 20:55:44;;;;;;;24.45;12.38;;;;;;;;;;6163045;23;20363;-94
2023/11/27 21:04:22;;;;;;;23.85;13.13;;;;;;;;;;6285846;22;20030;-94
2023/11/27 21:07:09;;;;;;;21.90;13.98;;;;;;;;;;6269955;22;20051;-93
2023/11/27 21:12:36;;;;;;;25.70;13.23;;;;;;;;;;6287135;22;20015;-94
2023/11/27 21:15:06;;;;;;;23.38;12.35;;;;;;;;;;6253589;22;20083;-93
2023/11/27 21:17:38;;;;;;;22.25;12.65;;;;;;;;;;6259639;22;20042;-95
2023/11/27 21:20:20;;;;;;;23.55;12.70;;;;;;;;;;6261319;22;20059;-94
2023/11/27 21:22:51;;;;;;;25.75;13.90;;;;;;;;;;6269052;22;20112;-92
2023/11/27 21:25:20;;;;;;;26.15;14.20;;;;;;;;;;6262222;22;20440;-95
2023/11/27 21:34:12;;;;;;;23.20;12.50;;;;;;;;;;6278518;22;20011;-94
2023/11/27 21:37:13;;;;;;;24.17;13.10;;;;;;;;;;6251374;22;20011;-94
2023/11/27 21:39:39;;;;;;;20.83;12.50;;;;;;;;;;6275400;22;20389;-94
2023/11/27 21:45:16;;;;;;;19.58;11.32;;;;;;;;;;6126654;23;20028;-94
2023/11/27 21:48:04;;;;;;;21.50;12.07;;;;;;;;;;6126540;23;20013;-95
2023/11/27 21:50:36;;;;;;;20.27;11.57;;;;;;;;;;6102238;23;20010;-94
2023/11/27 21:53:32;;;;;;;21.05;12.63;;;;;;;;;;6101760;23;20010;-96
2023/11/27 21:56:24;;;;;;;21.80;12.10;;;;;;;;;;6129819;23;20010;-94
2023/11/27 21:58:50;;;;;;;23.33;12.68;;;;;;;;;;6120969;22;20017;-94